sensor_id;sensor_type;location;lat;lon;timestamp;temperature;humidity
29003;DHT22;16102;57.138;-2.118;2023-03-04T00:00:29;4.50;1.00
29003;DHT22;16102;57.138;-2.118;2023-03-04T00:02:56;4.50;1.00
29003;DHT22;16102;57.138;-2.118;2023-03-04T00:05:23;4.50;1.00
29003;DHT22;16102;57.138;-2.118;2023-03-04T00:07:50;4.50;1.00
29003;DHT22;16102;57.138;-2.118;2023-03-04T00:10:17;4.50;1.00
29003;DHT22;16102;57.138;-2.118;2023-03-04T00:12:44;4.50;1.00
29003;DHT22;16102;57.138;-2.118;2023-03-04T00:15:11;4.40;1.00
29003;DHT22;16102;57.138;-2.118;2023-03-04T00:17:38;4.40;1.00
29003;DHT22;16102;57.138;-2.118;2023-03-04T00:20:06;4.40;1.00
29003;DHT22;16102;57.138;-2.118;2023-03-04T00:22:33;4.40;1.00
29003;DHT22;16102;57.138;-2.118;2023-03-04T00:25:00;4.40;1.00
29003;DHT22;16102;57.138;-2.118;2023-03-04T00:27:27;4.30;1.00
29003;DHT22;16102;57.138;-2.118;2023-03-04T00:29:55;4.30;1.00
29003;DHT22;16102;57.138;-2.118;2023-03-04T00:32:22;4.30;1.00
29003;DHT22;16102;57.138;-2.118;2023-03-04T00:34:50;4.20;1.00
29003;DHT22;16102;57.138;-2.118;2023-03-04T00:37:17;4.20;1.00
29003;DHT22;16102;57.138;-2.118;2023-03-04T00:39:44;4.20;1.00
29003;DHT22;16102;57.138;-2.118;2023-03-04T00:42:11;4.20;1.00
29003;DHT22;16102;57.138;-2.118;2023-03-04T00:44:38;4.10;1.00
29003;DHT22;16102;57.138;-2.118;2023-03-04T00:47:05;4.10;1.00
29003;DHT22;16102;57.138;-2.118;2023-03-04T00:49:32;4.10;1.00
29003;DHT22;16102;57.138;-2.118;2023-03-04T00:52:02;4.10;1.00
29003;DHT22;16102;57.138;-2.118;2023-03-04T00:54:29;4.10;1.00
29003;DHT22;16102;57.138;-2.118;2023-03-04T00:56:56;4.10;1.00
29003;DHT22;16102;57.138;-2.118;2023-03-04T00:59:23;4.10;1.00
29003;DHT22;16102;57.138;-2.118;2023-03-04T01:01:50;4.00;1.00
29003;DHT22;16102;57.138;-2.118;2023-03-04T01:04:17;4.00;1.00
29003;DHT22;16102;57.138;-2.118;2023-03-04T01:06:44;4.00;1.00
29003;DHT22;16102;57.138;-2.118;2023-03-04T01:09:11;4.00;1.00
29003;DHT22;16102;57.138;-2.118;2023-03-04T01:11:38;4.00;1.00
29003;DHT22;16102;57.138;-2.118;2023-03-04T01:14:05;4.00;1.00
29003;DHT22;16102;57.138;-2.118;2023-03-04T01:16:32;4.10;1.00
29003;DHT22;16102;57.138;-2.118;2023-03-04T01:18:59;4.10;1.00
29003;DHT22;16102;57.138;-2.118;2023-03-04T01:21:26;4.10;1.00
29003;DHT22;16102;57.138;-2.118;2023-03-04T01:23:53;4.20;1.00
29003;DHT22;16102;57.138;-2.118;2023-03-04T01:26:20;4.20;1.00
29003;DHT22;16102;57.138;-2.118;2023-03-04T01:28:47;4.30;1.00
29003;DHT22;16102;57.138;-2.118;2023-03-04T01:31:14;4.30;1.00
29003;DHT22;16102;57.138;-2.118;2023-03-04T01:33:42;4.30;1.00
29003;DHT22;16102;57.138;-2.118;2023-03-04T01:36:09;4.30;1.00
29003;DHT22;16102;57.138;-2.118;2023-03-04T01:38:36;4.30;1.00
29003;DHT22;16102;57.138;-2.118;2023-03-04T01:41:04;4.30;1.00
29003;DHT22;16102;57.138;-2.118;2023-03-04T01:43:31;4.30;1.00
29003;DHT22;16102;57.138;-2.118;2023-03-04T01:45:58;4.30;1.00
29003;DHT22;16102;57.138;-2.118;2023-03-04T01:48:29;4.30;1.00
29003;DHT22;16102;57.138;-2.118;2023-03-04T01:50:57;4.30;1.00
29003;DHT22;16102;57.138;-2.118;2023-03-04T01:53:30;4.30;1.00
29003;DHT22;16102;57.138;-2.118;2023-03-04T01:56:14;4.30;1.00
29003;DHT22;16102;57.138;-2.118;2023-03-04T01:58:41;4.30;1.00
29003;DHT22;16102;57.138;-2.118;2023-03-04T02:01:11;4.30;1.00
29003;DHT22;16102;57.138;-2.118;2023-03-04T02:03:38;4.20;1.00
29003;DHT22;16102;57.138;-2.118;2023-03-04T02:06:06;4.20;1.00
29003;DHT22;16102;57.138;-2.118;2023-03-04T02:08:33;4.20;1.00
29003;DHT22;16102;57.138;-2.118;2023-03-04T02:11:00;4.20;1.00
29003;DHT22;16102;57.138;-2.118;2023-03-04T02:13:27;4.10;1.00
29003;DHT22;16102;57.138;-2.118;2023-03-04T02:15:54;4.10;1.00
29003;DHT22;16102;57.138;-2.118;2023-03-04T02:18:22;4.10;1.00
29003;DHT22;16102;57.138;-2.118;2023-03-04T02:21:30;4.10;1.00
29003;DHT22;16102;57.138;-2.118;2023-03-04T02:24:47;4.10;1.00
29003;DHT22;16102;57.138;-2.118;2023-03-04T02:26:55;4.20;1.00
29003;DHT22;16102;57.138;-2.118;2023-03-04T02:29:22;4.20;1.00
29003;DHT22;16102;57.138;-2.118;2023-03-04T02:31:51;4.20;1.00
29003;DHT22;16102;57.138;-2.118;2023-03-04T02:34:22;4.30;1.00
29003;DHT22;16102;57.138;-2.118;2023-03-04T02:36:51;4.30;1.00
29003;DHT22;16102;57.138;-2.118;2023-03-04T02:41:47;4.20;1.00
29003;DHT22;16102;57.138;-2.118;2023-03-04T02:44:21;4.20;1.00
29003;DHT22;16102;57.138;-2.118;2023-03-04T02:46:49;4.20;1.00
29003;DHT22;16102;57.138;-2.118;2023-03-04T02:49:17;4.20;1.00
29003;DHT22;16102;57.138;-2.118;2023-03-04T02:51:45;4.20;1.00
29003;DHT22;16102;57.138;-2.118;2023-03-04T02:54:20;4.10;1.00
29003;DHT22;16102;57.138;-2.118;2023-03-04T02:56:50;4.20;1.00
29003;DHT22;16102;57.138;-2.118;2023-03-04T02:59:18;4.10;1.00
29003;DHT22;16102;57.138;-2.118;2023-03-04T03:01:45;4.10;1.00
29003;DHT22;16102;57.138;-2.118;2023-03-04T03:04:13;4.10;1.00
29003;DHT22;16102;57.138;-2.118;2023-03-04T03:06:40;4.10;1.00
29003;DHT22;16102;57.138;-2.118;2023-03-04T03:09:08;4.00;1.00
29003;DHT22;16102;57.138;-2.118;2023-03-04T03:11:35;4.00;1.00
29003;DHT22;16102;57.138;-2.118;2023-03-04T03:14:02;4.00;1.00
29003;DHT22;16102;57.138;-2.118;2023-03-04T03:16:29;4.00;1.00
29003;DHT22;16102;57.138;-2.118;2023-03-04T03:18:56;3.90;1.00
29003;DHT22;16102;57.138;-2.118;2023-03-04T03:21:23;3.90;1.00
29003;DHT22;16102;57.138;-2.118;2023-03-04T03:23:50;3.90;1.00
29003;DHT22;16102;57.138;-2.118;2023-03-04T03:26:18;3.90;1.00
29003;DHT22;16102;57.138;-2.118;2023-03-04T03:28:45;3.90;1.00
29003;DHT22;16102;57.138;-2.118;2023-03-04T03:31:12;3.90;1.00
29003;DHT22;16102;57.138;-2.118;2023-03-04T03:33:39;3.90;1.00
29003;DHT22;16102;57.138;-2.118;2023-03-04T03:36:07;3.90;1.00
29003;DHT22;16102;57.138;-2.118;2023-03-04T03:38:34;3.90;1.00
29003;DHT22;16102;57.138;-2.118;2023-03-04T03:41:01;3.90;1.00
29003;DHT22;16102;57.138;-2.118;2023-03-04T03:43:28;3.90;1.00
29003;DHT22;16102;57.138;-2.118;2023-03-04T03:45:55;3.90;1.00
29003;DHT22;16102;57.138;-2.118;2023-03-04T03:48:22;3.90;1.00
29003;DHT22;16102;57.138;-2.118;2023-03-04T03:50:49;3.90;1.00
29003;DHT22;16102;57.138;-2.118;2023-03-04T03:53:16;3.90;1.00
29003;DHT22;16102;57.138;-2.118;2023-03-04T03:55:43;3.90;1.00
29003;DHT22;16102;57.138;-2.118;2023-03-04T03:58:10;3.90;1.00
29003;DHT22;16102;57.138;-2.118;2023-03-04T04:00:37;3.90;1.00
29003;DHT22;16102;57.138;-2.118;2023-03-04T04:03:04;3.90;1.00
29003;DHT22;16102;57.138;-2.118;2023-03-04T04:05:31;3.90;1.00
29003;DHT22;16102;57.138;-2.118;2023-03-04T04:07:58;3.80;1.00
29003;DHT22;16102;57.138;-2.118;2023-03-04T04:10:25;3.80;1.00
29003;DHT22;16102;57.138;-2.118;2023-03-04T04:12:52;3.90;1.00
29003;DHT22;16102;57.138;-2.118;2023-03-04T04:15:19;3.80;1.00
29003;DHT22;16102;57.138;-2.118;2023-03-04T04:17:46;3.80;1.00
29003;DHT22;16102;57.138;-2.118;2023-03-04T04:20:13;3.90;1.00
29003;DHT22;16102;57.138;-2.118;2023-03-04T04:22:40;3.90;1.00
29003;DHT22;16102;57.138;-2.118;2023-03-04T04:25:07;3.90;1.00
29003;DHT22;16102;57.138;-2.118;2023-03-04T04:27:36;3.90;1.00
29003;DHT22;16102;57.138;-2.118;2023-03-04T04:30:04;3.90;1.00
29003;DHT22;16102;57.138;-2.118;2023-03-04T04:32:31;3.90;1.00
29003;DHT22;16102;57.138;-2.118;2023-03-04T04:34:58;3.90;1.00
29003;DHT22;16102;57.138;-2.118;2023-03-04T04:37:25;3.90;1.00
29003;DHT22;16102;57.138;-2.118;2023-03-04T04:39:52;3.90;1.00
29003;DHT22;16102;57.138;-2.118;2023-03-04T04:42:21;3.90;1.00
29003;DHT22;16102;57.138;-2.118;2023-03-04T04:44:48;3.90;1.00
29003;DHT22;16102;57.138;-2.118;2023-03-04T04:47:15;3.90;1.00
29003;DHT22;16102;57.138;-2.118;2023-03-04T04:49:42;3.90;1.00
29003;DHT22;16102;57.138;-2.118;2023-03-04T04:52:09;3.80;1.00
29003;DHT22;16102;57.138;-2.118;2023-03-04T04:54:36;3.90;1.00
29003;DHT22;16102;57.138;-2.118;2023-03-04T04:57:03;3.90;1.00
29003;DHT22;16102;57.138;-2.118;2023-03-04T04:59:30;3.90;1.00
29003;DHT22;16102;57.138;-2.118;2023-03-04T05:01:57;3.90;1.00
29003;DHT22;16102;57.138;-2.118;2023-03-04T05:04:24;3.90;1.00
29003;DHT22;16102;57.138;-2.118;2023-03-04T05:06:51;3.90;1.00
29003;DHT22;16102;57.138;-2.118;2023-03-04T05:09:18;3.90;1.00
29003;DHT22;16102;57.138;-2.118;2023-03-04T05:11:46;3.80;1.00
29003;DHT22;16102;57.138;-2.118;2023-03-04T05:14:13;3.80;1.00
29003;DHT22;16102;57.138;-2.118;2023-03-04T05:16:40;3.80;1.00
29003;DHT22;16102;57.138;-2.118;2023-03-04T05:19:07;3.80;1.00
29003;DHT22;16102;57.138;-2.118;2023-03-04T05:21:34;3.80;1.00
29003;DHT22;16102;57.138;-2.118;2023-03-04T05:24:01;3.70;1.00
29003;DHT22;16102;57.138;-2.118;2023-03-04T05:26:28;3.80;1.00
29003;DHT22;16102;57.138;-2.118;2023-03-04T05:28:55;3.80;1.00
29003;DHT22;16102;57.138;-2.118;2023-03-04T05:31:22;3.80;1.00
29003;DHT22;16102;57.138;-2.118;2023-03-04T05:33:49;3.70;1.00
29003;DHT22;16102;57.138;-2.118;2023-03-04T05:36:16;3.80;1.00
29003;DHT22;16102;57.138;-2.118;2023-03-04T05:38:42;3.80;1.00
29003;DHT22;16102;57.138;-2.118;2023-03-04T05:41:09;3.80;1.00
29003;DHT22;16102;57.138;-2.118;2023-03-04T05:43:36;3.80;1.00
29003;DHT22;16102;57.138;-2.118;2023-03-04T05:46:12;3.80;1.00
29003;DHT22;16102;57.138;-2.118;2023-03-04T05:48:40;3.80;1.00
29003;DHT22;16102;57.138;-2.118;2023-03-04T05:51:07;3.70;1.00
29003;DHT22;16102;57.138;-2.118;2023-03-04T05:53:35;3.80;1.00
29003;DHT22;16102;57.138;-2.118;2023-03-04T05:56:10;3.80;1.00
29003;DHT22;16102;57.138;-2.118;2023-03-04T05:58:37;3.80;1.00
29003;DHT22;16102;57.138;-2.118;2023-03-04T06:01:05;3.80;1.00
29003;DHT22;16102;57.138;-2.118;2023-03-04T06:03:32;3.80;1.00
29003;DHT22;16102;57.138;-2.118;2023-03-04T06:05:59;3.70;1.00
29003;DHT22;16102;57.138;-2.118;2023-03-04T06:08:26;3.70;1.00
29003;DHT22;16102;57.138;-2.118;2023-03-04T06:10:55;3.70;1.00
29003;DHT22;16102;57.138;-2.118;2023-03-04T06:13:22;3.70;1.00
29003;DHT22;16102;57.138;-2.118;2023-03-04T06:15:56;3.70;1.00
29003;DHT22;16102;57.138;-2.118;2023-03-04T06:18:25;3.70;1.00
29003;DHT22;16102;57.138;-2.118;2023-03-04T06:21:00;3.70;1.00
29003;DHT22;16102;57.138;-2.118;2023-03-04T06:23:28;3.70;1.00
29003;DHT22;16102;57.138;-2.118;2023-03-04T06:25:57;3.70;1.00
29003;DHT22;16102;57.138;-2.118;2023-03-04T06:28:24;3.70;1.00
29003;DHT22;16102;57.138;-2.118;2023-03-04T06:30:52;3.70;1.00
29003;DHT22;16102;57.138;-2.118;2023-03-04T06:33:20;3.70;1.00
29003;DHT22;16102;57.138;-2.118;2023-03-04T06:35:47;3.80;1.00
29003;DHT22;16102;57.138;-2.118;2023-03-04T06:38:14;3.90;1.00
29003;DHT22;16102;57.138;-2.118;2023-03-04T06:40:41;3.90;1.00
29003;DHT22;16102;57.138;-2.118;2023-03-04T06:43:08;3.90;1.00
29003;DHT22;16102;57.138;-2.118;2023-03-04T06:45:37;3.90;1.00
29003;DHT22;16102;57.138;-2.118;2023-03-04T06:48:05;3.90;1.00
29003;DHT22;16102;57.138;-2.118;2023-03-04T06:50:32;3.90;1.00
29003;DHT22;16102;57.138;-2.118;2023-03-04T06:52:59;3.90;1.00
29003;DHT22;16102;57.138;-2.118;2023-03-04T06:55:26;3.90;1.00
29003;DHT22;16102;57.138;-2.118;2023-03-04T06:57:53;3.90;1.00
29003;DHT22;16102;57.138;-2.118;2023-03-04T07:00:20;4.00;1.00
29003;DHT22;16102;57.138;-2.118;2023-03-04T07:02:50;4.00;1.00
29003;DHT22;16102;57.138;-2.118;2023-03-04T07:05:20;4.10;1.00
29003;DHT22;16102;57.138;-2.118;2023-03-04T07:07:47;4.10;1.00
29003;DHT22;16102;57.138;-2.118;2023-03-04T07:10:16;4.10;1.00
29003;DHT22;16102;57.138;-2.118;2023-03-04T07:12:44;4.10;1.00
29003;DHT22;16102;57.138;-2.118;2023-03-04T07:15:11;4.20;1.00
29003;DHT22;16102;57.138;-2.118;2023-03-04T07:17:37;4.20;1.00
29003;DHT22;16102;57.138;-2.118;2023-03-04T07:20:05;4.30;1.00
29003;DHT22;16102;57.138;-2.118;2023-03-04T07:22:32;4.30;1.00
29003;DHT22;16102;57.138;-2.118;2023-03-04T07:24:59;4.40;1.00
29003;DHT22;16102;57.138;-2.118;2023-03-04T07:27:26;4.30;1.00
29003;DHT22;16102;57.138;-2.118;2023-03-04T07:29:53;4.30;1.00
29003;DHT22;16102;57.138;-2.118;2023-03-04T07:32:19;4.40;1.00
29003;DHT22;16102;57.138;-2.118;2023-03-04T07:34:47;4.40;2.30
29003;DHT22;16102;57.138;-2.118;2023-03-04T07:37:14;4.40;5.70
29003;DHT22;16102;57.138;-2.118;2023-03-04T07:39:41;4.50;12.10
29003;DHT22;16102;57.138;-2.118;2023-03-04T07:42:08;4.50;26.50
29003;DHT22;16102;57.138;-2.118;2023-03-04T07:44:35;4.50;48.20
29003;DHT22;16102;57.138;-2.118;2023-03-04T07:47:02;4.50;69.40
29003;DHT22;16102;57.138;-2.118;2023-03-04T07:49:29;4.50;90.80
29003;DHT22;16102;57.138;-2.118;2023-03-04T07:51:56;4.50;99.20
29003;DHT22;16102;57.138;-2.118;2023-03-04T07:54:22;4.50;99.90
29003;DHT22;16102;57.138;-2.118;2023-03-04T07:56:49;4.50;99.90
29003;DHT22;16102;57.138;-2.118;2023-03-04T07:59:16;4.50;99.90
29003;DHT22;16102;57.138;-2.118;2023-03-04T08:01:43;4.50;99.90
29003;DHT22;16102;57.138;-2.118;2023-03-04T08:04:11;4.50;99.90
29003;DHT22;16102;57.138;-2.118;2023-03-04T08:06:45;4.50;99.90
29003;DHT22;16102;57.138;-2.118;2023-03-04T08:09:14;4.50;99.90
29003;DHT22;16102;57.138;-2.118;2023-03-04T08:11:41;4.50;99.90
29003;DHT22;16102;57.138;-2.118;2023-03-04T08:14:10;4.50;99.90
29003;DHT22;16102;57.138;-2.118;2023-03-04T08:16:37;4.50;99.90
29003;DHT22;16102;57.138;-2.118;2023-03-04T08:19:05;4.60;99.90
29003;DHT22;16102;57.138;-2.118;2023-03-04T08:21:33;4.60;99.90
29003;DHT22;16102;57.138;-2.118;2023-03-04T08:24:01;4.60;99.90
29003;DHT22;16102;57.138;-2.118;2023-03-04T08:26:38;4.60;99.90
29003;DHT22;16102;57.138;-2.118;2023-03-04T08:29:10;4.70;99.90
29003;DHT22;16102;57.138;-2.118;2023-03-04T08:31:38;4.70;99.90
29003;DHT22;16102;57.138;-2.118;2023-03-04T08:34:06;4.70;99.90
29003;DHT22;16102;57.138;-2.118;2023-03-04T08:36:34;4.80;99.90
29003;DHT22;16102;57.138;-2.118;2023-03-04T08:39:02;4.80;99.90
29003;DHT22;16102;57.138;-2.118;2023-03-04T08:41:29;4.70;99.90
29003;DHT22;16102;57.138;-2.118;2023-03-04T08:43:57;4.70;99.90
29003;DHT22;16102;57.138;-2.118;2023-03-04T08:46:24;4.80;99.90
29003;DHT22;16102;57.138;-2.118;2023-03-04T08:48:51;4.80;99.90
29003;DHT22;16102;57.138;-2.118;2023-03-04T08:51:18;4.80;99.90
29003;DHT22;16102;57.138;-2.118;2023-03-04T08:53:46;4.80;99.90
29003;DHT22;16102;57.138;-2.118;2023-03-04T08:56:14;4.90;99.90
29003;DHT22;16102;57.138;-2.118;2023-03-04T08:58:41;4.90;99.90
29003;DHT22;16102;57.138;-2.118;2023-03-04T09:01:10;5.00;99.90
29003;DHT22;16102;57.138;-2.118;2023-03-04T09:03:37;5.10;99.90
29003;DHT22;16102;57.138;-2.118;2023-03-04T09:06:05;5.20;99.90
29003;DHT22;16102;57.138;-2.118;2023-03-04T09:08:33;5.20;99.90
29003;DHT22;16102;57.138;-2.118;2023-03-04T09:11:00;5.30;99.90
29003;DHT22;16102;57.138;-2.118;2023-03-04T09:13:29;5.40;99.90
29003;DHT22;16102;57.138;-2.118;2023-03-04T09:15:56;5.40;99.90
29003;DHT22;16102;57.138;-2.118;2023-03-04T09:18:24;5.50;99.90
29003;DHT22;16102;57.138;-2.118;2023-03-04T09:20:52;5.60;99.90
29003;DHT22;16102;57.138;-2.118;2023-03-04T09:23:19;5.60;90.50
29003;DHT22;16102;57.138;-2.118;2023-03-04T09:25:47;5.70;66.70
29003;DHT22;16102;57.138;-2.118;2023-03-04T09:28:17;5.70;55.60
29003;DHT22;16102;57.138;-2.118;2023-03-04T09:30:44;5.70;19.60
29003;DHT22;16102;57.138;-2.118;2023-03-04T09:33:12;5.80;9.80
29003;DHT22;16102;57.138;-2.118;2023-03-04T09:35:39;5.90;6.80
29003;DHT22;16102;57.138;-2.118;2023-03-04T09:38:06;5.90;1.00
29003;DHT22;16102;57.138;-2.118;2023-03-04T09:40:43;5.90;1.00
29003;DHT22;16102;57.138;-2.118;2023-03-04T09:43:18;5.90;1.00
29003;DHT22;16102;57.138;-2.118;2023-03-04T09:45:51;6.00;1.00
29003;DHT22;16102;57.138;-2.118;2023-03-04T09:48:24;6.00;1.00
29003;DHT22;16102;57.138;-2.118;2023-03-04T09:53:58;6.20;1.00
29003;DHT22;16102;57.138;-2.118;2023-03-04T09:56:38;6.30;1.00
29003;DHT22;16102;57.138;-2.118;2023-03-04T10:01:59;6.50;1.00
29003;DHT22;16102;57.138;-2.118;2023-03-04T10:04:34;6.70;1.00
29003;DHT22;16102;57.138;-2.118;2023-03-04T10:07:02;7.00;1.00
29003;DHT22;16102;57.138;-2.118;2023-03-04T10:12:27;7.00;1.00
29003;DHT22;16102;57.138;-2.118;2023-03-04T10:15:22;6.90;1.00
29003;DHT22;16102;57.138;-2.118;2023-03-04T10:17:56;6.90;1.00
29003;DHT22;16102;57.138;-2.118;2023-03-04T10:20:32;7.00;1.00
29003;DHT22;16102;57.138;-2.118;2023-03-04T10:23:25;7.00;1.00
29003;DHT22;16102;57.138;-2.118;2023-03-04T10:25:53;7.00;1.00
29003;DHT22;16102;57.138;-2.118;2023-03-04T10:28:30;7.10;1.00
29003;DHT22;16102;57.138;-2.118;2023-03-04T10:31:20;7.20;1.00
29003;DHT22;16102;57.138;-2.118;2023-03-04T10:33:52;7.20;1.00
29003;DHT22;16102;57.138;-2.118;2023-03-04T10:41:34;6.90;1.00
29003;DHT22;16102;57.138;-2.118;2023-03-04T10:46:42;6.30;1.00
29003;DHT22;16102;57.138;-2.118;2023-03-04T10:49:10;6.00;1.00
29003;DHT22;16102;57.138;-2.118;2023-03-04T10:51:45;5.90;1.00
29003;DHT22;16102;57.138;-2.118;2023-03-04T10:54:23;5.90;1.00
29003;DHT22;16102;57.138;-2.118;2023-03-04T10:57:12;5.90;1.00
29003;DHT22;16102;57.138;-2.118;2023-03-04T10:59:48;5.90;1.00
29003;DHT22;16102;57.138;-2.118;2023-03-04T11:02:23;6.00;1.00
29003;DHT22;16102;57.138;-2.118;2023-03-04T11:13:11;6.70;1.00
29003;DHT22;16102;57.138;-2.118;2023-03-04T11:15:57;6.80;1.00
29003;DHT22;16102;57.138;-2.118;2023-03-04T11:18:40;7.00;1.00
29003;DHT22;16102;57.138;-2.118;2023-03-04T11:21:13;7.20;1.00
29003;DHT22;16102;57.138;-2.118;2023-03-04T11:26:25;7.50;1.00
29003;DHT22;16102;57.138;-2.118;2023-03-04T11:29:07;7.50;1.00
29003;DHT22;16102;57.138;-2.118;2023-03-04T11:34:36;7.50;1.00
29003;DHT22;16102;57.138;-2.118;2023-03-04T11:37:21;7.50;1.00
29003;DHT22;16102;57.138;-2.118;2023-03-04T11:40:10;7.50;1.00
29003;DHT22;16102;57.138;-2.118;2023-03-04T11:42:53;7.40;1.00
29003;DHT22;16102;57.138;-2.118;2023-03-04T11:54:10;7.70;1.00
29003;DHT22;16102;57.138;-2.118;2023-03-04T11:56:43;7.50;1.00
29003;DHT22;16102;57.138;-2.118;2023-03-04T12:06:01;7.20;1.00
29003;DHT22;16102;57.138;-2.118;2023-03-04T12:19:45;6.80;1.00
29003;DHT22;16102;57.138;-2.118;2023-03-04T12:22:27;6.70;1.00
29003;DHT22;16102;57.138;-2.118;2023-03-04T12:25:11;6.90;1.00
29003;DHT22;16102;57.138;-2.118;2023-03-04T12:31:09;7.00;1.00
29003;DHT22;16102;57.138;-2.118;2023-03-04T12:41:30;7.00;1.00
29003;DHT22;16102;57.138;-2.118;2023-03-04T12:54:56;7.60;1.00
29003;DHT22;16102;57.138;-2.118;2023-03-04T12:57:26;7.40;1.00
29003;DHT22;16102;57.138;-2.118;2023-03-04T13:14:07;7.10;1.00
29003;DHT22;16102;57.138;-2.118;2023-03-04T13:16:57;6.90;1.00
29003;DHT22;16102;57.138;-2.118;2023-03-04T13:19:50;6.80;1.00
29003;DHT22;16102;57.138;-2.118;2023-03-04T13:25:43;6.30;1.00
29003;DHT22;16102;57.138;-2.118;2023-03-04T13:28:20;6.40;1.00
29003;DHT22;16102;57.138;-2.118;2023-03-04T13:35:49;6.90;1.00
29003;DHT22;16102;57.138;-2.118;2023-03-04T13:51:35;7.60;1.00
29003;DHT22;16102;57.138;-2.118;2023-03-04T13:56:42;8.10;1.00
29003;DHT22;16102;57.138;-2.118;2023-03-04T13:59:31;8.00;1.00
29003;DHT22;16102;57.138;-2.118;2023-03-04T14:02:12;7.90;1.00
29003;DHT22;16102;57.138;-2.118;2023-03-04T14:07:24;7.80;1.00
29003;DHT22;16102;57.138;-2.118;2023-03-04T14:10:04;7.60;1.00
29003;DHT22;16102;57.138;-2.118;2023-03-04T14:12:44;7.50;1.00
29003;DHT22;16102;57.138;-2.118;2023-03-04T14:17:40;7.40;1.00
29003;DHT22;16102;57.138;-2.118;2023-03-04T14:22:50;7.20;1.00
29003;DHT22;16102;57.138;-2.118;2023-03-04T14:25:23;7.10;1.00
29003;DHT22;16102;57.138;-2.118;2023-03-04T14:28:02;7.00;1.00
29003;DHT22;16102;57.138;-2.118;2023-03-04T14:30:30;7.00;1.00
29003;DHT22;16102;57.138;-2.118;2023-03-04T14:33:15;7.00;1.00
29003;DHT22;16102;57.138;-2.118;2023-03-04T14:35:52;7.00;1.00
29003;DHT22;16102;57.138;-2.118;2023-03-04T14:38:38;6.90;1.00
29003;DHT22;16102;57.138;-2.118;2023-03-04T14:41:20;7.00;1.00
29003;DHT22;16102;57.138;-2.118;2023-03-04T14:44:08;7.00;1.00
29003;DHT22;16102;57.138;-2.118;2023-03-04T14:46:49;7.00;1.00
29003;DHT22;16102;57.138;-2.118;2023-03-04T14:49:34;7.10;1.00
29003;DHT22;16102;57.138;-2.118;2023-03-04T14:52:03;7.10;1.00
